createdAt,value
2017-01-06T00:00:45.103Z,0
2017-01-06T00:02:58.172Z,0
2017-01-06T00:05:14.823Z,0
2017-01-06T00:07:27.861Z,0
2017-01-06T00:09:40.496Z,0
2017-01-06T00:11:59.285Z,0
2017-01-06T00:14:14.782Z,0
2017-01-06T00:16:30.617Z,0
2017-01-06T00:18:48.441Z,0
2017-01-06T00:21:05.367Z,0
2017-01-06T00:23:18.608Z,0
2017-01-06T00:25:33.279Z,0
2017-01-06T00:27:41.895Z,0
2017-01-06T00:29:55.854Z,0
2017-01-06T00:32:10.096Z,0
2017-01-06T00:34:22.490Z,0
2017-01-06T00:36:29.869Z,0
2017-01-06T00:38:44.659Z,0
2017-01-06T00:40:52.354Z,0
2017-01-06T00:43:05.988Z,0
2017-01-06T00:45:18.896Z,0
2017-01-06T00:47:34.360Z,0
2017-01-06T00:49:46.710Z,0
2017-01-06T00:51:53.995Z,0
2017-01-06T00:54:06.424Z,0
2017-01-06T00:56:18.924Z,0
2017-01-06T00:58:31.426Z,0
2017-01-06T01:00:43.743Z,0
2017-01-06T01:02:56.216Z,0
2017-01-06T01:05:08.607Z,0
2017-01-06T01:07:22.981Z,0
2017-01-06T01:09:35.374Z,0
2017-01-06T01:11:42.757Z,0
2017-01-06T01:13:55.101Z,0
2017-01-06T01:16:07.606Z,0
2017-01-06T01:18:20.226Z,0
2017-01-06T01:20:32.872Z,0
2017-01-06T01:22:45.111Z,0
2017-01-06T01:24:57.408Z,0
2017-01-06T01:27:05.761Z,0
2017-01-06T01:29:13.320Z,0
2017-01-06T01:31:25.786Z,0
2017-01-06T01:33:38.213Z,0
2017-01-06T01:35:50.689Z,0
2017-01-06T01:38:03.075Z,0
2017-01-06T01:40:15.522Z,0
2017-01-06T01:42:27.800Z,0
2017-01-06T01:44:41.453Z,0
2017-01-06T01:46:49.151Z,0
2017-01-06T01:48:56.551Z,0
2017-01-06T01:51:08.987Z,0
2017-01-06T01:53:24.091Z,0
2017-01-06T01:55:37.023Z,0
2017-01-06T01:57:49.399Z,0
2017-01-06T02:00:01.908Z,0
2017-01-06T02:02:14.417Z,0
2017-01-06T02:04:26.790Z,0
2017-01-06T02:06:39.198Z,0
2017-01-06T02:08:46.682Z,0
2017-01-06T02:10:59.010Z,0
2017-01-06T02:13:11.476Z,0
2017-01-06T02:15:23.808Z,0
2017-01-06T02:17:36.089Z,0
2017-01-06T02:19:48.277Z,0
2017-01-06T02:22:00.535Z,0
2017-01-06T02:24:12.944Z,0
2017-01-06T02:26:25.323Z,0
2017-01-06T02:28:33.349Z,0
2017-01-06T02:30:40.958Z,0
2017-01-06T02:32:53.421Z,0
2017-01-06T02:35:05.707Z,0
2017-01-06T02:37:18.917Z,0
2017-01-06T02:39:31.254Z,0
2017-01-06T02:41:43.524Z,0
2017-01-06T02:43:58.106Z,0
2017-01-06T02:46:10.477Z,0
2017-01-06T02:48:22.890Z,0
2017-01-06T02:50:30.208Z,0
2017-01-06T02:52:42.665Z,0
2017-01-06T02:54:54.948Z,0
2017-01-06T02:57:02.381Z,0
2017-01-06T02:59:14.792Z,0
2017-01-06T03:01:27.467Z,0
2017-01-06T03:03:40.202Z,0
2017-01-06T03:05:52.459Z,0
2017-01-06T03:08:04.784Z,0
2017-01-06T03:10:17.044Z,0
2017-01-06T03:12:29.310Z,0
2017-01-06T03:14:41.592Z,0
2017-01-06T03:16:54.808Z,0
2017-01-06T03:19:02.286Z,0
2017-01-06T03:21:14.761Z,0
2017-01-06T03:23:27.025Z,0
2017-01-06T03:25:39.355Z,0
2017-01-06T03:27:51.845Z,0
2017-01-06T03:30:04.452Z,0
2017-01-06T03:32:16.759Z,0
2017-01-06T03:34:29.162Z,0
2017-01-06T03:36:41.684Z,0
2017-01-06T03:38:54.495Z,0
2017-01-06T03:41:06.806Z,0
2017-01-06T03:43:20.222Z,0
2017-01-06T03:45:32.615Z,0
2017-01-06T03:47:44.911Z,0
2017-01-06T03:49:52.390Z,0
2017-01-06T03:52:04.904Z,0
2017-01-06T03:54:17.229Z,0
2017-01-06T03:56:24.537Z,0
2017-01-06T03:58:31.805Z,0
2017-01-06T04:00:39.137Z,0
2017-01-06T04:02:46.408Z,0
2017-01-06T04:04:53.772Z,0
2017-01-06T04:07:06.103Z,0
2017-01-06T04:09:18.485Z,0
2017-01-06T04:11:25.891Z,0
2017-01-06T04:13:38.782Z,0
2017-01-06T04:15:51.095Z,0
2017-01-06T04:18:03.447Z,0
2017-01-06T04:20:16.762Z,0
2017-01-06T04:22:29.211Z,0
2017-01-06T04:24:41.449Z,0
2017-01-06T04:26:53.731Z,0
2017-01-06T04:29:06.883Z,0
2017-01-06T04:31:19.242Z,0
2017-01-06T04:33:31.618Z,0
2017-01-06T04:35:43.911Z,0
2017-01-06T04:37:56.181Z,0
2017-01-06T04:40:09.330Z,0
2017-01-06T04:42:21.558Z,0
2017-01-06T04:44:33.863Z,0
2017-01-06T04:46:46.739Z,0
2017-01-06T04:48:59.400Z,0
2017-01-06T04:51:13.369Z,0
2017-01-06T04:53:25.779Z,0
2017-01-06T04:55:38.230Z,0
2017-01-06T04:57:50.655Z,0
2017-01-06T05:00:03.118Z,0
2017-01-06T05:02:15.400Z,0
2017-01-06T05:04:28.031Z,0
2017-01-06T05:06:35.469Z,0
2017-01-06T05:08:47.981Z,0
2017-01-06T05:11:00.271Z,0
2017-01-06T05:13:12.701Z,0
2017-01-06T05:15:15.194Z,0
2017-01-06T05:17:27.589Z,0
2017-01-06T05:19:40.058Z,0
2017-01-06T05:21:52.448Z,0
2017-01-06T05:24:05.220Z,0
2017-01-06T05:26:17.616Z,0
2017-01-06T05:28:29.823Z,0
2017-01-06T05:30:42.321Z,0
2017-01-06T05:32:54.622Z,0
2017-01-06T05:35:01.933Z,0
2017-01-06T05:37:14.285Z,0
2017-01-06T05:39:21.622Z,0
2017-01-06T05:41:29.024Z,0
2017-01-06T05:43:41.235Z,0
2017-01-06T05:45:53.516Z,0
2017-01-06T05:48:05.836Z,0
2017-01-06T05:50:18.105Z,0
2017-01-06T05:52:30.558Z,0
2017-01-06T05:54:42.889Z,0
2017-01-06T05:56:55.243Z,0
2017-01-06T05:59:08.229Z,0
2017-01-06T06:01:20.707Z,0
2017-01-06T06:03:33.175Z,0
2017-01-06T06:05:45.507Z,0
2017-01-06T06:07:57.862Z,0
2017-01-06T06:10:05.337Z,0
2017-01-06T06:12:17.589Z,0
2017-01-06T06:14:29.927Z,0
2017-01-06T06:16:42.312Z,0
2017-01-06T06:18:49.581Z,0
2017-01-06T06:21:02.148Z,0
2017-01-06T06:23:14.420Z,0
2017-01-06T06:25:21.752Z,0
2017-01-06T06:27:34.011Z,0
2017-01-06T06:29:46.291Z,0
2017-01-06T06:31:58.610Z,0
2017-01-06T06:34:11.440Z,0
2017-01-06T06:36:24.982Z,0
2017-01-06T06:38:37.473Z,0
2017-01-06T06:40:49.660Z,0
2017-01-06T06:43:02.117Z,0
2017-01-06T06:45:14.496Z,0
2017-01-06T06:47:26.895Z,0
2017-01-06T06:49:39.171Z,0
2017-01-06T06:51:51.497Z,5
2017-01-06T06:54:03.731Z,5
2017-01-06T06:56:15.958Z,5
2017-01-06T06:58:28.179Z,10
2017-01-06T07:00:35.598Z,10
2017-01-06T07:02:47.913Z,15
2017-01-06T07:05:00.116Z,15
2017-01-06T07:07:12.719Z,20
2017-01-06T07:09:25.377Z,25
2017-01-06T07:11:39.116Z,25
2017-01-06T07:13:51.536Z,35
2017-01-06T07:16:03.741Z,40
2017-01-06T07:18:16.080Z,45
2017-01-06T07:20:28.445Z,50
2017-01-06T07:22:40.842Z,55
2017-01-06T07:24:53.160Z,65
2017-01-06T07:27:05.546Z,70
2017-01-06T07:29:17.937Z,75
2017-01-06T07:31:30.458Z,80
2017-01-06T07:33:42.683Z,85
2017-01-06T07:35:55.013Z,90
2017-01-06T07:38:07.253Z,95
2017-01-06T07:40:14.527Z,100
2017-01-06T07:42:26.942Z,105
2017-01-06T07:44:34.535Z,115
2017-01-06T07:46:47.227Z,125
2017-01-06T07:48:59.601Z,130
2017-01-06T07:51:11.786Z,140
2017-01-06T07:53:24.284Z,150
2017-01-06T07:55:36.864Z,155
2017-01-06T07:57:44.428Z,160
2017-01-06T07:59:56.817Z,170
2017-01-06T08:02:04.115Z,170
2017-01-06T08:04:11.706Z,170
2017-01-06T08:06:25.174Z,175
2017-01-06T08:08:39.031Z,180
2017-01-06T08:10:51.454Z,195
2017-01-06T08:12:58.864Z,220
2017-01-06T08:15:12.711Z,235
2017-01-06T08:17:26.862Z,250
2017-01-06T08:19:39.245Z,255
2017-01-06T08:21:51.765Z,255
2017-01-06T08:24:17.639Z,245
2017-01-06T08:26:25.004Z,240
2017-01-06T08:28:37.221Z,230
2017-01-06T08:30:44.424Z,220
2017-01-06T08:32:56.672Z,215
2017-01-06T08:35:08.941Z,230
2017-01-06T08:37:21.203Z,260
2017-01-06T08:39:33.358Z,310
2017-01-06T08:41:45.840Z,360
2017-01-06T08:43:58.188Z,375
2017-01-06T08:46:10.379Z,390
2017-01-06T08:48:22.545Z,365
2017-01-06T08:50:34.658Z,330
2017-01-06T08:52:46.860Z,285
2017-01-06T08:54:59.127Z,295
2017-01-06T08:57:11.323Z,300
2017-01-06T08:59:23.612Z,310
2017-01-06T09:01:36.206Z,315
2017-01-06T09:03:43.388Z,325
2017-01-06T09:05:55.929Z,305
2017-01-06T09:08:08.213Z,330
2017-01-06T09:10:20.608Z,335
2017-01-06T09:12:32.922Z,335
2017-01-06T09:14:45.212Z,330
2017-01-06T09:16:57.545Z,325
2017-01-06T09:19:10.031Z,330
2017-01-06T09:21:33.654Z,340
2017-01-06T09:23:45.910Z,335
2017-01-06T09:25:58.099Z,340
2017-01-06T09:28:10.380Z,325
2017-01-06T09:30:22.593Z,330
2017-01-06T09:32:29.857Z,360
2017-01-06T09:34:37.135Z,365
2017-01-06T09:36:49.277Z,365
2017-01-06T09:38:56.835Z,375
2017-01-06T09:41:04.078Z,330
2017-01-06T09:43:16.386Z,335
2017-01-06T09:45:28.806Z,395
2017-01-06T09:47:41.092Z,405
2017-01-06T09:49:53.342Z,325
2017-01-06T09:52:05.657Z,350
2017-01-06T09:54:17.900Z,430
2017-01-06T09:56:30.350Z,445
2017-01-06T09:58:42.675Z,450
2017-01-06T10:00:54.902Z,440
2017-01-06T10:03:07.104Z,445
2017-01-06T10:05:19.311Z,450
2017-01-06T10:07:31.484Z,470
2017-01-06T10:09:38.688Z,475
2017-01-06T10:11:51.150Z,485
2017-01-06T10:14:03.522Z,485
2017-01-06T10:16:10.917Z,490
2017-01-06T10:18:23.365Z,480
2017-01-06T10:20:36.635Z,490
2017-01-06T10:22:49.024Z,515
2017-01-06T10:25:01.492Z,520
2017-01-06T10:27:13.887Z,355
2017-01-06T10:29:26.500Z,325
2017-01-06T10:31:33.692Z,325
2017-01-06T10:33:45.965Z,315
2017-01-06T10:35:58.302Z,315
2017-01-06T10:38:10.794Z,315
2017-01-06T10:40:23.301Z,315
2017-01-06T10:42:36.111Z,315
2017-01-06T10:44:48.649Z,320
2017-01-06T10:47:01.046Z,330
2017-01-06T10:49:13.485Z,330
2017-01-06T10:51:27.821Z,325
2017-01-06T10:53:40.924Z,330
2017-01-06T10:55:53.689Z,355
2017-01-06T10:58:06.026Z,395
2017-01-06T11:00:19.314Z,1345
2017-01-06T11:02:32.565Z,1500
2017-01-06T11:04:45.796Z,1770
2017-01-06T11:06:53.850Z,1870
2017-01-06T11:09:06.356Z,1845
2017-01-06T11:11:14.057Z,1860
2017-01-06T11:13:26.368Z,1825
2017-01-06T11:15:38.833Z,1865
2017-01-06T11:17:51.254Z,1785
2017-01-06T11:20:03.422Z,1785
2017-01-06T11:22:15.709Z,1640
2017-01-06T11:24:28.631Z,1805
2017-01-06T11:26:37.287Z,1755
2017-01-06T11:28:51.176Z,1780
2017-01-06T11:31:08.035Z,1755
2017-01-06T11:33:16.069Z,1550
2017-01-06T11:35:28.778Z,1645
2017-01-06T11:37:37.344Z,1450
2017-01-06T11:39:50.960Z,1590
2017-01-06T11:42:04.015Z,1660
2017-01-06T11:44:17.352Z,1505
2017-01-06T11:46:30.554Z,1345
2017-01-06T11:48:43.832Z,1460
2017-01-06T11:50:56.894Z,1070
2017-01-06T11:53:11.525Z,1270
2017-01-06T11:55:25.170Z,1305
2017-01-06T11:57:38.593Z,1020
2017-01-06T11:59:53.095Z,1020
2017-01-06T12:02:01.896Z,1125
2017-01-06T12:04:15.672Z,1065
2017-01-06T12:06:28.323Z,1045
2017-01-06T12:08:40.962Z,955
2017-01-06T12:10:53.815Z,1090
2017-01-06T12:13:06.386Z,1065
2017-01-06T12:15:18.828Z,890
2017-01-06T12:17:31.276Z,1030
2017-01-06T12:19:44.339Z,790
2017-01-06T12:21:57.141Z,975
2017-01-06T12:24:04.833Z,1365
2017-01-06T12:26:17.357Z,1275
2017-01-06T12:28:32.795Z,1030
2017-01-06T12:30:45.135Z,1105
2017-01-06T12:32:57.508Z,1215
2017-01-06T12:35:13.880Z,995
2017-01-06T12:37:26.627Z,970
2017-01-06T12:39:39.132Z,950
2017-01-06T12:41:51.741Z,870
2017-01-06T12:43:59.201Z,900
2017-01-06T12:46:11.874Z,950
2017-01-06T12:48:24.871Z,1135
2017-01-06T12:50:37.209Z,515
2017-01-06T12:52:49.389Z,995
2017-01-06T12:55:01.878Z,615
2017-01-06T12:57:15.153Z,635
2017-01-06T12:59:27.763Z,810
2017-01-06T13:01:40.714Z,835
2017-01-06T13:03:53.137Z,795
2017-01-06T13:06:06.020Z,810
2017-01-06T13:08:18.492Z,985
2017-01-06T13:10:30.973Z,915
2017-01-06T13:12:43.319Z,880
2017-01-06T13:14:50.575Z,440
2017-01-06T13:17:02.911Z,740
2017-01-06T13:19:15.519Z,700
2017-01-06T13:21:28.017Z,600
2017-01-06T13:23:36.501Z,840
2017-01-06T13:25:44.178Z,700
2017-01-06T13:27:56.690Z,845
2017-01-06T13:30:09.230Z,955
2017-01-06T13:32:21.684Z,755
2017-01-06T13:34:34.175Z,755
2017-01-06T13:36:46.535Z,730
2017-01-06T13:38:58.951Z,970
2017-01-06T13:41:11.257Z,910
2017-01-06T13:43:23.573Z,825
2017-01-06T13:45:35.957Z,955
2017-01-06T13:47:43.427Z,955
2017-01-06T13:49:55.937Z,1045
2017-01-06T13:52:08.695Z,1035
2017-01-06T13:54:22.907Z,995
2017-01-06T13:56:38.833Z,1020
2017-01-06T13:58:51.192Z,965
2017-01-06T14:00:59.124Z,825
2017-01-06T14:03:12.629Z,555
2017-01-06T14:05:25.413Z,490
2017-01-06T14:07:37.877Z,445
2017-01-06T14:09:40.453Z,425
2017-01-06T14:11:52.713Z,405
2017-01-06T14:14:05.132Z,395
2017-01-06T14:16:17.375Z,370
2017-01-06T14:18:41.944Z,350
2017-01-06T14:20:54.442Z,335
2017-01-06T14:23:06.885Z,325
2017-01-06T14:25:19.361Z,310
2017-01-06T14:27:31.997Z,300
2017-01-06T14:29:44.481Z,280
2017-01-06T14:31:56.731Z,270
2017-01-06T14:34:09.209Z,250
2017-01-06T14:36:21.522Z,240
2017-01-06T14:38:33.926Z,225
2017-01-06T14:40:46.699Z,210
2017-01-06T14:42:59.471Z,195
2017-01-06T14:45:12.093Z,185
2017-01-06T14:47:19.635Z,175
2017-01-06T14:49:32.265Z,165
2017-01-06T14:51:45.227Z,155
2017-01-06T14:53:57.825Z,145
2017-01-06T14:56:05.657Z,135
2017-01-06T14:58:18.232Z,135
2017-01-06T15:00:30.782Z,125
2017-01-06T15:02:43.318Z,120
2017-01-06T15:04:55.840Z,110
2017-01-06T15:07:08.423Z,105
2017-01-06T15:09:15.803Z,100
2017-01-06T15:11:28.389Z,90
2017-01-06T15:13:40.909Z,80
2017-01-06T15:15:53.384Z,75
2017-01-06T15:18:05.756Z,70
2017-01-06T15:20:18.439Z,60
2017-01-06T15:22:31.093Z,55
2017-01-06T15:24:43.404Z,50
2017-01-06T15:26:55.786Z,45
2017-01-06T15:29:09.019Z,40
2017-01-06T15:31:22.071Z,35
2017-01-06T15:33:35.110Z,30
2017-01-06T15:35:48.152Z,25
2017-01-06T15:37:55.456Z,20
2017-01-06T15:40:07.701Z,15
2017-01-06T15:42:19.993Z,15
2017-01-06T15:44:32.207Z,10
2017-01-06T15:46:44.664Z,5
2017-01-06T15:48:57.003Z,5
2017-01-06T15:51:09.352Z,5
2017-01-06T15:53:16.827Z,0
2017-01-06T15:55:29.139Z,0
2017-01-06T15:57:41.507Z,0
2017-01-06T15:59:53.944Z,0
2017-01-06T16:02:06.211Z,0
2017-01-06T16:04:13.550Z,0
2017-01-06T16:06:25.767Z,0
2017-01-06T16:08:38.030Z,0
2017-01-06T16:10:50.598Z,0
2017-01-06T16:12:57.950Z,0
2017-01-06T16:15:10.398Z,0
2017-01-06T16:17:23.046Z,0
2017-01-06T16:19:35.524Z,0
2017-01-06T16:21:48.077Z,0
2017-01-06T16:23:55.586Z,0
2017-01-06T16:26:08.374Z,0
2017-01-06T16:28:20.827Z,0
2017-01-06T16:30:33.463Z,0
2017-01-06T16:32:46.059Z,0
2017-01-06T16:34:59.087Z,0
2017-01-06T16:37:14.074Z,0
2017-01-06T16:39:26.854Z,0
2017-01-06T16:41:39.597Z,0
2017-01-06T16:43:52.174Z,0
2017-01-06T16:46:04.667Z,0
2017-01-06T16:48:17.325Z,0
2017-01-06T16:50:24.919Z,0
2017-01-06T16:52:37.555Z,0
2017-01-06T16:54:54.637Z,0
2017-01-06T16:57:13.125Z,0
2017-01-06T16:59:25.544Z,0
2017-01-06T17:01:38.131Z,0
2017-01-06T17:03:50.879Z,0
2017-01-06T17:06:03.655Z,0
2017-01-06T17:08:16.216Z,0
2017-01-06T17:10:28.600Z,0
2017-01-06T17:12:35.985Z,0
2017-01-06T17:14:48.754Z,0
2017-01-06T17:17:01.112Z,0
2017-01-06T17:19:14.609Z,0
2017-01-06T17:21:22.134Z,0
2017-01-06T17:23:34.623Z,0
2017-01-06T17:25:46.974Z,0
2017-01-06T17:27:59.448Z,0
2017-01-06T17:30:12.176Z,0
2017-01-06T17:32:24.615Z,0
2017-01-06T17:34:36.981Z,0
2017-01-06T17:36:49.451Z,0
2017-01-06T17:39:01.914Z,0
2017-01-06T17:41:14.439Z,0
2017-01-06T17:43:27.007Z,0
2017-01-06T17:45:39.504Z,0
2017-01-06T17:47:51.955Z,0
2017-01-06T17:50:04.609Z,0
2017-01-06T17:52:17.084Z,0
2017-01-06T17:54:29.470Z,0
2017-01-06T17:56:36.783Z,0
2017-01-06T17:58:49.507Z,0
2017-01-06T18:00:56.964Z,0
2017-01-06T18:03:09.297Z,0
2017-01-06T18:05:21.772Z,0
2017-01-06T18:07:29.232Z,0
2017-01-06T18:09:41.844Z,0
2017-01-06T18:11:54.468Z,0
2017-01-06T18:14:07.088Z,0
2017-01-06T18:16:19.555Z,0
2017-01-06T18:18:32.301Z,0
2017-01-06T18:20:39.774Z,0
2017-01-06T18:22:52.154Z,0
2017-01-06T18:25:04.501Z,0
2017-01-06T18:27:16.892Z,0
2017-01-06T18:29:29.161Z,0
2017-01-06T18:31:41.587Z,0
2017-01-06T18:33:54.277Z,0
2017-01-06T18:36:06.683Z,0
2017-01-06T18:38:19.393Z,0
2017-01-06T18:40:31.984Z,0
2017-01-06T18:42:44.488Z,0
2017-01-06T18:44:52.052Z,0
2017-01-06T18:47:04.719Z,0
2017-01-06T18:49:17.101Z,0
2017-01-06T18:51:24.517Z,0
2017-01-06T18:53:37.307Z,0
2017-01-06T18:55:49.972Z,0
2017-01-06T18:58:02.714Z,0
2017-01-06T19:00:15.705Z,0
2017-01-06T19:02:28.478Z,0
2017-01-06T19:04:41.749Z,0
2017-01-06T19:07:05.552Z,0
2017-01-06T19:09:14.503Z,0
2017-01-06T19:11:27.392Z,0
2017-01-06T19:13:40.141Z,0
2017-01-06T19:15:47.892Z,0
2017-01-06T19:18:00.704Z,0
2017-01-06T19:20:20.769Z,0
2017-01-06T19:22:33.464Z,0
2017-01-06T19:24:46.316Z,0
2017-01-06T19:26:59.554Z,0
2017-01-06T19:29:14.310Z,0
2017-01-06T19:31:28.229Z,0
2017-01-06T19:33:42.946Z,0
2017-01-06T19:35:58.434Z,0
2017-01-06T19:38:14.064Z,0
2017-01-06T19:40:29.669Z,0
2017-01-06T19:42:45.618Z,0
2017-01-06T19:45:01.717Z,0
2017-01-06T19:47:20.332Z,0
2017-01-06T19:49:37.048Z,0
2017-01-06T19:51:52.880Z,0
2017-01-06T19:54:08.417Z,0
2017-01-06T19:56:19.145Z,0
2017-01-06T19:58:33.370Z,0
2017-01-06T20:00:47.912Z,0
2017-01-06T20:03:02.445Z,0
2017-01-06T20:05:17.738Z,0
2017-01-06T20:07:32.985Z,0
2017-01-06T20:09:47.981Z,0
2017-01-06T20:12:04.889Z,0
2017-01-06T20:14:18.962Z,0
2017-01-06T20:16:33.363Z,0
2017-01-06T20:18:43.174Z,0
2017-01-06T20:20:58.074Z,0
2017-01-06T20:23:13.232Z,0
2017-01-06T20:25:29.251Z,0
2017-01-06T20:27:44.042Z,0
2017-01-06T20:29:59.808Z,0
2017-01-06T20:32:13.175Z,0
2017-01-06T20:34:27.045Z,0
2017-01-06T20:36:41.284Z,0
2017-01-06T20:38:55.361Z,0
2017-01-06T20:41:09.611Z,0
2017-01-06T20:43:23.368Z,0
2017-01-06T20:45:37.434Z,0
2017-01-06T20:47:52.058Z,0
2017-01-06T20:50:05.895Z,0
2017-01-06T20:52:19.590Z,0
2017-01-06T20:54:33.154Z,0
2017-01-06T20:56:46.103Z,0
2017-01-06T20:58:54.189Z,0
2017-01-06T21:01:07.514Z,0
2017-01-06T21:03:19.918Z,0
2017-01-06T21:05:33.978Z,0
2017-01-06T21:07:47.528Z,0
2017-01-06T21:10:01.620Z,0
2017-01-06T21:12:14.905Z,0
2017-01-06T21:14:28.273Z,0
2017-01-06T21:16:36.886Z,0
2017-01-06T21:18:50.584Z,0
2017-01-06T21:21:03.977Z,0
2017-01-06T21:23:16.798Z,0
2017-01-06T21:25:29.663Z,0
2017-01-06T21:27:42.207Z,0
2017-01-06T21:29:54.672Z,0
2017-01-06T21:32:07.252Z,0
2017-01-06T21:34:19.828Z,0
2017-01-06T21:36:27.857Z,0
2017-01-06T21:38:35.369Z,0
2017-01-06T21:40:42.729Z,0
2017-01-06T21:42:55.139Z,0
2017-01-06T21:45:07.707Z,0
2017-01-06T21:47:20.234Z,0
2017-01-06T21:49:32.667Z,0
2017-01-06T21:51:45.377Z,0
2017-01-06T21:53:52.935Z,0
2017-01-06T21:56:35.323Z,0
2017-01-06T21:59:06.356Z,0
2017-01-06T22:01:19.051Z,0
2017-01-06T22:03:31.509Z,0
2017-01-06T22:05:44.416Z,0
2017-01-06T22:07:57.052Z,0
2017-01-06T22:10:09.626Z,0
2017-01-06T22:12:26.201Z,0
2017-01-06T22:14:40.205Z,0
2017-01-06T22:16:54.652Z,0
2017-01-06T22:19:07.125Z,0
2017-01-06T22:21:20.837Z,0
2017-01-06T22:23:28.513Z,0
2017-01-06T22:25:41.077Z,0
2017-01-06T22:27:53.643Z,0
2017-01-06T22:30:06.037Z,0
2017-01-06T22:32:13.604Z,0
2017-01-06T22:34:26.580Z,0
2017-01-06T22:36:40.127Z,0
2017-01-06T22:38:54.907Z,0
2017-01-06T22:41:08.763Z,0
2017-01-06T22:43:21.398Z,0
2017-01-06T22:45:33.865Z,0
2017-01-06T22:47:41.545Z,0
2017-01-06T22:49:53.882Z,0
2017-01-06T22:52:06.552Z,0
2017-01-06T22:54:19.007Z,0
2017-01-06T22:56:31.340Z,0
2017-01-06T22:58:39.153Z,0
2017-01-06T23:00:46.567Z,0
2017-01-06T23:02:53.946Z,0
2017-01-06T23:05:06.452Z,0
2017-01-06T23:07:18.673Z,0
2017-01-06T23:09:31.181Z,0
2017-01-06T23:11:43.429Z,0
2017-01-06T23:13:55.879Z,0
2017-01-06T23:16:03.472Z,0
2017-01-06T23:18:15.777Z,0
2017-01-06T23:20:28.301Z,0
2017-01-06T23:22:40.577Z,0
2017-01-06T23:24:52.913Z,0
2017-01-06T23:27:05.443Z,0
2017-01-06T23:29:17.875Z,0
2017-01-06T23:31:30.361Z,0
2017-01-06T23:33:38.323Z,0
2017-01-06T23:35:45.745Z,0
2017-01-06T23:37:58.273Z,0
2017-01-06T23:40:10.708Z,0
2017-01-06T23:42:23.215Z,0
2017-01-06T23:44:35.525Z,0
2017-01-06T23:46:47.851Z,0
2017-01-06T23:49:00.333Z,0
2017-01-06T23:51:12.585Z,0
2017-01-06T23:53:25.017Z,0
2017-01-06T23:55:33.423Z,0
2017-01-06T23:57:45.726Z,0
2017-01-06T23:59:58.077Z,0
